TimeMDT,TemperatureF,Dew PointF,Humidity,Sea Level PressureIn,VisibilityMPH,Wind Direction,Wind SpeedMPH,Gust SpeedMPH,PrecipitationIn,Events,Conditions,WindDirDegrees,DateUTC
12:14 AM,44.6,35.6,71,30.44,10.0,West,9.2,-,N/A,,Overcast,270,2013-09-15 06:14:00
12:34 AM,44.6,35.6,71,30.44,10.0,WSW,5.8,-,N/A,,Overcast,250,2013-09-15 06:34:00
12:54 AM,44.6,35.6,71,30.44,10.0,West,5.8,-,N/A,,Overcast,260,2013-09-15 06:54:00
1:14 AM,44.6,35.6,71,30.45,10.0,West,8.1,-,N/A,,Overcast,270,2013-09-15 07:14:00
1:34 AM,44.6,35.6,71,30.45,10.0,West,10.4,-,N/A,,Overcast,260,2013-09-15 07:34:00
1:54 AM,44.6,35.6,71,30.44,10.0,West,9.2,-,N/A,,Mostly Cloudy,260,2013-09-15 07:54:00
2:14 AM,44.6,35.6,71,30.44,10.0,West,9.2,-,N/A,,Mostly Cloudy,260,2013-09-15 08:14:00
2:34 AM,44.6,35.6,71,30.44,10.0,West,5.8,-,N/A,,Clear,260,2013-09-15 08:34:00
2:54 AM,44.6,35.6,71,30.44,10.0,West,4.6,-,N/A,,Clear,270,2013-09-15 08:54:00
3:14 AM,44.6,35.6,71,30.44,10.0,West,5.8,-,N/A,,Clear,280,2013-09-15 09:14:00
3:34 AM,44.6,37.4,76,30.44,10.0,Calm,Calm,-,N/A,,Clear,0,2013-09-15 09:34:00
3:54 AM,44.6,35.6,71,30.44,10.0,SSE,5.8,-,N/A,,Clear,160,2013-09-15 09:54:00
4:14 AM,44.6,35.6,71,30.44,10.0,SE,5.8,-,N/A,,Clear,140,2013-09-15 10:14:00
4:34 AM,44.6,35.6,71,30.45,10.0,SE,4.6,-,N/A,,Clear,130,2013-09-15 10:34:00
4:54 AM,44.6,35.6,71,30.45,10.0,South,5.8,-,N/A,,Clear,170,2013-09-15 10:54:00
5:14 AM,44.6,35.6,71,30.46,10.0,South,16.1,-,N/A,,Clear,180,2013-09-15 11:14:00
5:34 AM,44.6,33.8,66,30.46,10.0,South,12.7,-,N/A,,Scattered Clouds,180,2013-09-15 11:34:00
5:54 AM,44.6,33.8,66,30.46,10.0,South,12.7,-,N/A,,Scattered Clouds,190,2013-09-15 11:54:00
6:14 AM,44.6,33.8,66,30.46,10.0,South,10.4,-,N/A,,Clear,180,2013-09-15 12:14:00
6:34 AM,44.6,32.0,61,30.47,10.0,South,10.4,-,N/A,,Clear,190,2013-09-15 12:34:00
6:54 AM,44.6,33.8,66,30.47,10.0,Calm,Calm,-,N/A,,Clear,0,2013-09-15 12:54:00
7:14 AM,44.6,33.8,66,30.48,10.0,South,8.1,-,N/A,,Clear,190,2013-09-15 13:14:00
7:34 AM,44.6,33.8,66,30.49,10.0,South,5.8,-,N/A,,Clear,190,2013-09-15 13:34:00
7:54 AM,44.6,33.8,66,30.49,10.0,South,5.8,-,N/A,,Clear,180,2013-09-15 13:54:00
8:14 AM,44.6,35.6,71,30.49,10.0,South,5.8,-,N/A,,Clear,170,2013-09-15 14:14:00
8:34 AM,48.2,35.6,62,30.49,10.0,South,5.8,-,N/A,,Clear,190,2013-09-15 14:34:00
8:54 AM,51.8,37.4,58,30.50,10.0,East,5.8,-,N/A,,Scattered Clouds,90,2013-09-15 14:54:00
9:14 AM,53.6,39.2,58,30.51,10.0,SSE,6.9,-,N/A,,Mostly Cloudy,160,2013-09-15 15:14:00
9:34 AM,53.6,37.4,54,30.51,10.0,SSE,6.9,-,N/A,,Overcast,160,2013-09-15 15:34:00
9:54 AM,51.8,37.4,58,30.52,10.0,ESE,4.6,-,N/A,,Overcast,120,2013-09-15 15:54:00
10:14 AM,51.8,35.6,54,30.52,10.0,SSE,9.2,-,N/A,,Overcast,160,2013-09-15 16:14:00
10:34 AM,51.8,37.4,58,30.53,10.0,South,12.7,16.1,N/A,,Overcast,170,2013-09-15 16:34:00
10:54 AM,51.8,37.4,58,30.52,10.0,SSE,16.1,20.7,N/A,,Overcast,160,2013-09-15 16:54:00
11:14 AM,50.0,35.6,58,30.53,10.0,South,17.3,-,N/A,,Overcast,170,2013-09-15 17:14:00
11:34 AM,53.6,35.6,51,30.53,10.0,SSE,13.8,20.7,N/A,Thunderstorm,Mostly Cloudy,160,2013-09-15 17:34:00
11:54 AM,51.8,35.6,54,30.52,10.0,SSE,18.4,-,N/A,,Mostly Cloudy,160,2013-09-15 17:54:00
12:14 PM,46.4,33.8,62,30.53,10.0,SE,6.9,10.4,N/A,Rain,Light Rain,140,2013-09-15 18:14:00
12:34 PM,50.0,35.6,58,30.52,10.0,ESE,4.6,-,N/A,,Overcast,120,2013-09-15 18:34:00
12:54 PM,51.8,37.4,58,30.52,10.0,ESE,5.8,-,N/A,,Overcast,110,2013-09-15 18:54:00
1:14 PM,44.6,35.6,71,30.52,7.0,South,26.5,-,N/A,Rain-Thunderstorm,Light Thunderstorms and Rain,170,2013-09-15 19:14:00
1:34 PM,44.6,35.6,71,30.54,5.0,South,18.4,-,0.01,Rain-Thunderstorm,Rain,170,2013-09-15 19:34:00
1:54 PM,44.6,35.6,71,30.53,7.0,South,18.4,-,0.02,Rain-Thunderstorm,Light Thunderstorms and Rain,170,2013-09-15 19:54:00
2:14 PM,44.6,37.4,76,30.52,7.0,SSE,20.7,27.6,N/A,Rain-Thunderstorm,Light Thunderstorms and Rain,160,2013-09-15 20:14:00
2:34 PM,44.6,37.4,76,30.51,4.0,East,8.1,25.3,0.01,Rain-Thunderstorm,Thunderstorms and Rain,100,2013-09-15 20:34:00
2:54 PM,46.4,37.4,71,30.51,10.0,South,8.1,-,0.01,Thunderstorm,Thunderstorm,170,2013-09-15 20:54:00
3:14 PM,46.4,35.6,66,30.52,10.0,SSE,8.1,-,N/A,Thunderstorm,Thunderstorm,150,2013-09-15 21:14:00
3:34 PM,44.6,37.4,76,30.52,10.0,SSE,23.0,-,N/A,Thunderstorm,Mostly Cloudy,160,2013-09-15 21:34:00
3:54 PM,44.6,35.6,71,30.54,5.0,South,17.3,-,0.02,Rain-Thunderstorm,Thunderstorms and Rain,180,2013-09-15 21:54:00
4:14 PM,44.6,37.4,76,30.53,2.5,SE,8.1,-,0.06,Rain,Rain,140,2013-09-15 22:14:00
4:34 PM,44.6,37.4,76,30.53,4.0,SSE,8.1,-,0.09,Rain-Thunderstorm,Light Thunderstorms and Rain,150,2013-09-15 22:34:00
4:54 PM,44.6,37.4,76,30.53,10.0,South,6.9,-,0.09,Thunderstorm,Mostly Cloudy,170,2013-09-15 22:54:00
5:14 PM,44.6,37.4,76,30.54,10.0,SSE,6.9,-,N/A,,Mostly Cloudy,160,2013-09-15 23:14:00
5:34 PM,44.6,37.4,76,30.54,4.0,South,6.9,10.4,0.02,Rain-Thunderstorm,Light Thunderstorms and Rain,190,2013-09-15 23:34:00
5:54 PM,44.6,37.4,76,30.55,3.0,WSW,5.8,-,0.04,Rain-Thunderstorm,Light Thunderstorms and Rain,250,2013-09-15 23:54:00
6:14 PM,44.6,37.4,76,30.55,10.0,West,5.8,-,N/A,,Overcast,270,2013-09-16 00:14:00
6:34 PM,44.6,37.4,76,30.55,5.0,WNW,5.8,-,0.01,Rain-Thunderstorm,Thunderstorms and Rain,290,2013-09-16 00:34:00
6:54 PM,44.6,37.4,76,30.55,10.0,South,5.8,-,0.01,,Overcast,170,2013-09-16 00:54:00
7:14 PM,44.6,37.4,76,30.55,10.0,South,6.9,-,N/A,,Overcast,190,2013-09-16 01:14:00
7:34 PM,44.6,37.4,76,30.56,0.2,West,6.9,-,N/A,,Haze,260,2013-09-16 01:34:00
7:54 PM,41.0,37.4,87,30.56,0.2,West,5.8,-,N/A,Fog,Fog,260,2013-09-16 01:54:00
8:14 PM,42.8,37.4,81,30.56,5.0,South,4.6,-,N/A,,Haze,190,2013-09-16 02:14:00
8:34 PM,42.8,37.4,81,30.57,0.2,South,5.8,-,N/A,,Haze,180,2013-09-16 02:34:00
8:54 PM,42.8,37.4,81,30.57,10.0,South,9.2,-,N/A,,Overcast,170,2013-09-16 02:54:00
9:14 PM,42.8,37.4,81,30.58,10.0,South,10.4,-,0.01,,Overcast,180,2013-09-16 03:14:00
9:34 PM,41.0,35.6,81,30.57,0.2,SSE,5.8,-,0.01,,Haze,160,2013-09-16 03:34:00
9:54 PM,41.0,35.6,81,30.57,0.5,SSE,6.9,-,0.01,,Haze,160,2013-09-16 03:54:00
10:14 PM,41.0,35.6,81,30.56,7.0,SSE,11.5,19.6,N/A,,Overcast,160,2013-09-16 04:14:00
10:34 PM,44.6,35.6,71,30.57,10.0,South,18.4,-,N/A,,Overcast,170,2013-09-16 04:34:00
10:54 PM,44.6,35.6,71,30.57,10.0,South,16.1,-,N/A,,Overcast,170,2013-09-16 04:54:00
11:14 PM,44.6,35.6,71,30.57,10.0,South,17.3,-,N/A,,Mostly Cloudy,170,2013-09-16 05:14:00
11:34 PM,44.6,35.6,71,30.57,10.0,South,19.6,24.2,N/A,,Scattered Clouds,180,2013-09-16 05:34:00
11:54 PM,44.6,35.6,71,30.56,10.0,South,23.0,-,N/A,,Scattered Clouds,170,2013-09-16 05:54:00